Gore, New Zealand
Current Conditions -  °F | °C
As of 8:30 AM on Tuesday 25 Nov 2014 (Local Time) from NZCH Reporting Station
Overcast Overcast  
Wind Chill: 57°   Ceiling: 1200
Heat Index: 57°   Visibility: 6mi
Dew Point: 54°   Wind: 3mph
Humidity: 88%   Direction: 150°SSE
Pressure: 29.83"   Gusts: NA
Location:  46.1°S, 168.95°E
Report Text: NZCH 242030Z AUTO 15003KT 9999 OVC012/// 14/12 Q1010 NOSIG
Loading
Personal Weather Stations






























Interactive Weather Map New forecast layout! Learn more

10-Day Weather Forecast

Advertisements
Track Severe Weather on mobile